Time;durP1;ratioP1;P1;durP2;ratioP2;P2;SDS_P1;SDS_P2;PMS_P1;PMS_P2;Temp;Humidity;BMP_temperature;BMP_pressure;BME280_temperature;BME280_humidity;BME280_pressure;Samples;Min_cycle;Max_cycle;Signal;HPM_P1;HPM_P2
2023/08/12 00:01:42;;;;;;;42.47;37.67;;;;;;;;;;5055943;28;20464;-76
2023/08/12 00:04:08;;;;;;;39.43;35.50;;;;;;;;;;5055016;28;20437;-76
2023/08/12 00:06:34;;;;;;;38.70;35.07;;;;;;;;;;5038808;28;20425;-76
2023/08/12 00:09:00;;;;;;;42.30;38.10;;;;;;;;;;5058296;28;20476;-76
2023/08/12 00:11:26;;;;;;;40.80;36.60;;;;;;;;;;5056517;28;20436;-76
2023/08/12 00:13:52;;;;;;;39.87;35.77;;;;;;;;;;5049779;28;20434;-77
2023/08/12 00:16:18;;;;;;;40.27;36.50;;;;;;;;;;5058589;28;20474;-75
2023/08/12 00:18:44;;;;;;;42.00;37.50;;;;;;;;;;5063699;28;20878;-76
2023/08/12 00:21:10;;;;;;;40.27;35.87;;;;;;;;;;5057998;28;20428;-75
2023/08/12 00:23:38;;;;;;;41.23;36.87;;;;;;;;;;5054573;28;20437;-76
2023/08/12 00:26:04;;;;;;;40.10;36.20;;;;;;;;;;5060027;28;20519;-76
2023/08/12 00:28:30;;;;;;;40.80;36.60;;;;;;;;;;5045401;28;20960;-76
2023/08/12 00:30:56;;;;;;;36.77;33.30;;;;;;;;;;5051549;28;20432;-75
2023/08/12 00:33:22;;;;;;;32.13;29.30;;;;;;;;;;5064223;28;20424;-76
2023/08/12 00:35:48;;;;;;;32.87;29.77;;;;;;;;;;5052710;28;20494;-76
2023/08/12 00:38:14;;;;;;;35.20;31.80;;;;;;;;;;5072772;28;21055;-76
2023/08/12 00:40:40;;;;;;;35.00;31.30;;;;;;;;;;5056946;28;20516;-76
2023/08/12 00:43:06;;;;;;;33.57;29.13;;;;;;;;;;5054177;28;20833;-76
2023/08/12 00:45:32;;;;;;;31.33;27.20;;;;;;;;;;5050634;28;20449;-76
2023/08/12 00:48:01;;;;;;;34.37;30.40;;;;;;;;;;5049731;28;21246;-76
2023/08/12 00:50:29;;;;;;;37.03;33.17;;;;;;;;;;5053271;28;20927;-76
2023/08/12 00:52:55;;;;;;;34.73;30.87;;;;;;;;;;5061524;28;20421;-75
2023/08/12 00:55:21;;;;;;;35.00;30.63;;;;;;;;;;5056452;28;20422;-76
2023/08/12 00:57:47;;;;;;;33.27;29.60;;;;;;;;;;5056303;28;20430;-77
2023/08/12 01:03:16;;;;;;;34.33;31.00;;;;;;;;;;5054766;28;20553;-77
2023/08/12 01:05:42;;;;;;;38.77;34.83;;;;;;;;;;5053929;28;20535;-76
2023/08/12 01:08:08;;;;;;;40.33;35.40;;;;;;;;;;5056288;28;20938;-76
2023/08/12 01:10:36;;;;;;;39.70;35.70;;;;;;;;;;5062243;28;21374;-76
2023/08/12 01:13:09;;;;;;;41.93;36.23;;;;;;;;;;5059233;28;20913;-75
2023/08/12 01:15:35;;;;;;;36.90;31.60;;;;;;;;;;5056462;28;20601;-76
2023/08/12 01:18:02;;;;;;;30.10;27.13;;;;;;;;;;5049268;28;20469;-76
2023/08/12 01:20:30;;;;;;;31.47;26.63;;;;;;;;;;5043865;28;20436;-75
2023/08/12 01:23:16;;;;;;;35.40;31.07;;;;;;;;;;5051211;28;20437;-76
2023/08/12 01:25:43;;;;;;;44.20;34.40;;;;;;;;;;5060267;28;20439;-76
2023/08/12 01:28:09;;;;;;;46.13;38.10;;;;;;;;;;5064507;28;21136;-76
2023/08/12 01:30:40;;;;;;;47.23;38.80;;;;;;;;;;5054724;28;20432;-76
2023/08/12 01:33:11;;;;;;;45.00;36.73;;;;;;;;;;5056258;28;20504;-76
2023/08/12 01:35:40;;;;;;;41.87;31.87;;;;;;;;;;5057650;28;20431;-76
2023/08/12 01:38:09;;;;;;;26.33;23.70;;;;;;;;;;5058966;28;20433;-77
2023/08/12 01:40:36;;;;;;;29.37;26.47;;;;;;;;;;5062425;28;20869;-76
2023/08/12 01:43:03;;;;;;;25.77;23.43;;;;;;;;;;5061264;28;21003;-77
2023/08/12 01:45:31;;;;;;;36.20;30.13;;;;;;;;;;5057336;28;21292;-76
2023/08/12 01:47:57;;;;;;;46.90;36.43;;;;;;;;;;5063205;28;20436;-77
2023/08/12 01:50:25;;;;;;;52.80;40.60;;;;;;;;;;5052700;28;20433;-76
2023/08/12 01:55:55;;;;;;;41.90;35.13;;;;;;;;;;5055513;28;20526;-75
2023/08/12 01:58:21;;;;;;;45.57;35.63;;;;;;;;;;5065394;28;20425;-76
2023/08/12 02:00:47;;;;;;;45.07;34.50;;;;;;;;;;5062059;28;20444;-75
2023/08/12 02:03:13;;;;;;;45.03;34.13;;;;;;;;;;5059971;28;20450;-75
2023/08/12 02:05:40;;;;;;;47.70;36.13;;;;;;;;;;5056105;28;20507;-75
2023/08/12 02:08:06;;;;;;;47.70;35.03;;;;;;;;;;5063234;28;21306;-75
2023/08/12 02:10:32;;;;;;;47.37;35.40;;;;;;;;;;5055857;28;20441;-76
2023/08/12 02:12:58;;;;;;;47.00;36.87;;;;;;;;;;5063131;28;20528;-76
2023/08/12 02:15:24;;;;;;;47.67;35.10;;;;;;;;;;5057649;28;21025;-74
2023/08/12 02:17:50;;;;;;;53.23;36.80;;;;;;;;;;5052152;28;20414;-75
2023/08/12 02:20:17;;;;;;;54.33;36.93;;;;;;;;;;5062690;28;20429;-76
2023/08/12 02:22:43;;;;;;;56.30;35.40;;;;;;;;;;5059731;28;20437;-74
2023/08/12 02:25:09;;;;;;;50.00;33.60;;;;;;;;;;5054850;28;20442;-74
2023/08/12 02:27:35;;;;;;;57.00;35.60;;;;;;;;;;5060205;28;20475;-74
2023/08/12 02:30:01;;;;;;;51.27;32.57;;;;;;;;;;5060248;28;20984;-75
2023/08/12 02:32:27;;;;;;;59.40;36.13;;;;;;;;;;5056908;28;20527;-75
2023/08/12 02:34:53;;;;;;;47.87;33.50;;;;;;;;;;5056631;28;20494;-75
2023/08/12 02:37:19;;;;;;;47.03;33.90;;;;;;;;;;5056955;28;20477;-75
2023/08/12 02:39:45;;;;;;;55.40;35.70;;;;;;;;;;5051518;28;20445;-75
2023/08/12 02:42:11;;;;;;;55.37;35.10;;;;;;;;;;5065803;28;20463;-75
2023/08/12 02:44:37;;;;;;;58.53;34.90;;;;;;;;;;5037878;28;20497;-75
2023/08/12 02:47:03;;;;;;;52.30;33.63;;;;;;;;;;5060342;28;20970;-75
2023/08/12 02:49:29;;;;;;;54.40;34.87;;;;;;;;;;5057280;28;20465;-75
2023/08/12 02:51:55;;;;;;;43.33;31.00;;;;;;;;;;5056122;28;21164;-75
2023/08/12 02:54:21;;;;;;;40.43;29.70;;;;;;;;;;5056628;28;20441;-75
2023/08/12 02:56:47;;;;;;;41.97;30.70;;;;;;;;;;5054476;28;20461;-75
2023/08/12 02:59:13;;;;;;;43.00;29.80;;;;;;;;;;5060349;28;20433;-74
2023/08/12 03:01:41;;;;;;;35.70;27.43;;;;;;;;;;5057721;28;20444;-76
2023/08/12 03:04:07;;;;;;;36.67;29.53;;;;;;;;;;5062903;28;21189;-75
2023/08/12 03:06:33;;;;;;;40.07;29.63;;;;;;;;;;5058584;28;20858;-75
2023/08/12 03:08:59;;;;;;;38.10;30.17;;;;;;;;;;5058558;28;20510;-74
2023/08/12 03:11:25;;;;;;;38.30;30.10;;;;;;;;;;5053643;28;20949;-75
2023/08/12 03:13:51;;;;;;;35.70;26.37;;;;;;;;;;5058861;28;20926;-75
2023/08/12 03:16:17;;;;;;;35.43;28.73;;;;;;;;;;5055179;28;20462;-75
2023/08/12 03:18:43;;;;;;;34.80;26.70;;;;;;;;;;5057558;28;20441;-76
2023/08/12 03:21:09;;;;;;;34.40;26.10;;;;;;;;;;5058742;28;20445;-75
2023/08/12 03:23:36;;;;;;;34.77;26.80;;;;;;;;;;5064615;28;20435;-76
2023/08/12 03:26:02;;;;;;;31.03;26.00;;;;;;;;;;5058039;28;20426;-76
2023/08/12 03:28:28;;;;;;;36.87;27.10;;;;;;;;;;5047333;28;20489;-76
2023/08/12 03:30:54;;;;;;;41.20;28.70;;;;;;;;;;5047100;28;20948;-75
2023/08/12 03:33:20;;;;;;;41.80;29.70;;;;;;;;;;5055407;28;20948;-76
2023/08/12 03:35:47;;;;;;;36.13;28.00;;;;;;;;;;5050903;28;20445;-76
2023/08/12 03:38:13;;;;;;;33.23;27.67;;;;;;;;;;5059077;28;20536;-76
2023/08/12 03:40:40;;;;;;;31.60;25.33;;;;;;;;;;5059511;28;20440;-74
2023/08/12 03:43:06;;;;;;;34.60;25.77;;;;;;;;;;5049341;28;21002;-75
2023/08/12 03:45:32;;;;;;;30.90;26.97;;;;;;;;;;5063803;28;20616;-75
2023/08/12 03:47:58;;;;;;;32.30;25.67;;;;;;;;;;5056375;28;20471;-76
2023/08/12 03:50:24;;;;;;;31.43;26.00;;;;;;;;;;5053464;28;20441;-76
2023/08/12 03:52:50;;;;;;;33.07;26.30;;;;;;;;;;5063124;28;20443;-76
2023/08/12 03:55:16;;;;;;;31.90;25.70;;;;;;;;;;5058923;28;20527;-76
2023/08/12 03:57:42;;;;;;;36.80;27.70;;;;;;;;;;5055122;28;20490;-76
2023/08/12 04:00:08;;;;;;;33.10;26.27;;;;;;;;;;5060179;28;20445;-75
2023/08/12 04:02:34;;;;;;;28.57;25.37;;;;;;;;;;5058470;28;20431;-75
2023/08/12 04:05:00;;;;;;;27.00;24.30;;;;;;;;;;5051483;28;20456;-76
2023/08/12 04:07:26;;;;;;;26.47;23.80;;;;;;;;;;5051510;28;20955;-76
2023/08/12 04:09:53;;;;;;;25.57;22.90;;;;;;;;;;5049826;28;20481;-74
2023/08/12 04:12:19;;;;;;;25.20;22.60;;;;;;;;;;5059592;28;20512;-75
2023/08/12 04:14:45;;;;;;;27.10;24.30;;;;;;;;;;5048967;28;20860;-75
2023/08/12 04:17:11;;;;;;;25.93;23.23;;;;;;;;;;5050450;28;20524;-77
2023/08/12 04:19:37;;;;;;;26.60;23.90;;;;;;;;;;5056870;28;20503;-75
2023/08/12 04:22:03;;;;;;;28.13;23.90;;;;;;;;;;5057843;28;20422;-76
2023/08/12 04:24:29;;;;;;;26.10;23.37;;;;;;;;;;5052197;28;21023;-76
2023/08/12 04:26:55;;;;;;;26.03;23.30;;;;;;;;;;5054876;28;20457;-75
2023/08/12 04:29:21;;;;;;;25.90;23.40;;;;;;;;;;5034434;28;20832;-75
2023/08/12 04:31:47;;;;;;;26.90;23.87;;;;;;;;;;5058579;28;20815;-75
2023/08/12 04:34:13;;;;;;;24.80;22.30;;;;;;;;;;5046733;28;20464;-74
2023/08/12 04:36:39;;;;;;;22.50;20.30;;;;;;;;;;5054589;28;20449;-74
2023/08/12 04:39:05;;;;;;;23.53;21.10;;;;;;;;;;5053986;28;20527;-75
2023/08/12 04:41:31;;;;;;;23.20;20.97;;;;;;;;;;5052173;28;20440;-75
2023/08/12 04:43:57;;;;;;;23.80;21.60;;;;;;;;;;5053358;28;20464;-75
2023/08/12 04:46:23;;;;;;;23.17;20.73;;;;;;;;;;5060221;28;20437;-75
2023/08/12 04:48:49;;;;;;;22.97;20.87;;;;;;;;;;5060970;28;20476;-75
2023/08/12 04:51:15;;;;;;;24.07;21.77;;;;;;;;;;5049969;28;20437;-75
2023/08/12 04:53:41;;;;;;;23.40;21.10;;;;;;;;;;5051637;28;20456;-75
2023/08/12 04:56:07;;;;;;;24.03;21.80;;;;;;;;;;5057819;28;20464;-74
2023/08/12 04:58:33;;;;;;;21.70;19.47;;;;;;;;;;5062856;28;20432;-75
2023/08/12 05:00:59;;;;;;;22.23;20.33;;;;;;;;;;5053306;28;20528;-75
2023/08/12 05:03:25;;;;;;;23.60;21.30;;;;;;;;;;5060053;28;20527;-76
2023/08/12 05:05:52;;;;;;;21.00;19.10;;;;;;;;;;5050965;28;20430;-76
2023/08/12 05:08:18;;;;;;;20.47;18.77;;;;;;;;;;5041826;28;20465;-76
2023/08/12 05:10:44;;;;;;;19.63;17.83;;;;;;;;;;5034727;28;20855;-75
2023/08/12 05:13:10;;;;;;;18.60;17.20;;;;;;;;;;5050855;28;20876;-75
2023/08/12 05:15:36;;;;;;;19.80;17.97;;;;;;;;;;5048786;28;20464;-76
2023/08/12 05:18:03;;;;;;;18.73;17.13;;;;;;;;;;5060033;28;20429;-76
2023/08/12 05:20:28;;;;;;;18.60;17.00;;;;;;;;;;5055501;28;20452;-76
2023/08/12 05:22:54;;;;;;;18.10;16.60;;;;;;;;;;5058347;28;21174;-77
2023/08/12 05:25:20;;;;;;;19.37;17.73;;;;;;;;;;5057776;28;20425;-77
2023/08/12 05:27:46;;;;;;;19.50;17.40;;;;;;;;;;5051223;28;21315;-76
2023/08/12 05:30:13;;;;;;;20.40;18.50;;;;;;;;;;5050948;28;20430;-76
2023/08/12 05:32:39;;;;;;;20.77;18.97;;;;;;;;;;5055379;28;20490;-76
2023/08/12 05:35:05;;;;;;;21.47;19.57;;;;;;;;;;5058020;28;20445;-76
2023/08/12 05:37:31;;;;;;;21.80;19.70;;;;;;;;;;5051275;28;20506;-75
2023/08/12 05:39:57;;;;;;;19.80;18.07;;;;;;;;;;5054024;28;20461;-77
2023/08/12 05:42:23;;;;;;;19.67;18.00;;;;;;;;;;5051150;28;20489;-76
2023/08/12 05:44:49;;;;;;;15.87;14.70;;;;;;;;;;5060931;28;20854;-77
2023/08/12 05:47:15;;;;;;;16.50;15.20;;;;;;;;;;5045945;28;20487;-76
2023/08/12 05:49:42;;;;;;;14.00;12.90;;;;;;;;;;5057025;28;20468;-76
2023/08/12 05:52:08;;;;;;;14.70;9.50;;;;;;;;;;5053191;28;20437;-76
2023/08/12 05:54:34;;;;;;;12.10;11.30;;;;;;;;;;5058093;28;20417;-75
2023/08/12 05:57:00;;;;;;;10.13;9.63;;;;;;;;;;5050108;28;20600;-75
2023/08/12 05:59:26;;;;;;;11.27;10.27;;;;;;;;;;5052210;28;20433;-75
2023/08/12 06:01:52;;;;;;;12.07;11.07;;;;;;;;;;5048087;28;20421;-75
2023/08/12 06:04:18;;;;;;;12.53;11.33;;;;;;;;;;5045256;28;20928;-74
2023/08/12 06:06:44;;;;;;;11.73;10.83;;;;;;;;;;5055984;28;20947;-77
2023/08/12 06:09:10;;;;;;;12.80;11.70;;;;;;;;;;5046692;28;20995;-76
2023/08/12 06:11:36;;;;;;;11.53;10.80;;;;;;;;;;5056555;28;20510;-75
2023/08/12 06:14:02;;;;;;;10.63;9.73;;;;;;;;;;5053802;28;20460;-76
2023/08/12 06:16:28;;;;;;;10.27;9.67;;;;;;;;;;5054239;28;20441;-76
2023/08/12 06:18:54;;;;;;;12.70;11.47;;;;;;;;;;5030963;28;20445;-81
2023/08/12 06:21:20;;;;;;;11.73;10.90;;;;;;;;;;5053711;28;20509;-81
2023/08/12 06:23:46;;;;;;;12.33;11.43;;;;;;;;;;5048498;28;20544;-80
2023/08/12 06:26:12;;;;;;;13.67;12.43;;;;;;;;;;5034904;28;20642;-76
2023/08/12 06:28:38;;;;;;;11.73;11.07;;;;;;;;;;5052733;28;20490;-73
2023/08/12 06:31:04;;;;;;;12.27;11.20;;;;;;;;;;5049876;28;20444;-75
2023/08/12 06:33:30;;;;;;;11.10;10.23;;;;;;;;;;5045496;28;22382;-75
2023/08/12 06:35:56;;;;;;;10.03;9.43;;;;;;;;;;5048812;28;20438;-75
2023/08/12 06:38:22;;;;;;;10.43;9.53;;;;;;;;;;5053668;28;20479;-75
2023/08/12 06:40:48;;;;;;;11.33;10.33;;;;;;;;;;5052543;28;20552;-76
2023/08/12 06:43:14;;;;;;;10.17;9.30;;;;;;;;;;5049460;28;20471;-76
2023/08/12 06:45:40;;;;;;;11.20;10.20;;;;;;;;;;5062302;28;20453;-74
2023/08/12 06:48:06;;;;;;;12.37;11.47;;;;;;;;;;5031212;28;20493;-75
2023/08/12 06:50:33;;;;;;;10.23;9.47;;;;;;;;;;5052727;28;20434;-74
2023/08/12 06:52:59;;;;;;;10.03;9.53;;;;;;;;;;5048129;28;20437;-77
2023/08/12 06:55:25;;;;;;;9.30;8.80;;;;;;;;;;5054501;28;20443;-77
2023/08/12 06:57:51;;;;;;;10.13;9.53;;;;;;;;;;5062322;28;20927;-77
2023/08/12 07:00:17;;;;;;;10.53;9.83;;;;;;;;;;5058981;28;21018;-81
2023/08/12 07:02:43;;;;;;;21.87;20.00;;;;;;;;;;5034368;28;20451;-79
2023/08/12 07:05:09;;;;;;;13.50;12.60;;;;;;;;;;5049858;28;20991;-78
2023/08/12 07:07:35;;;;;;;8.47;8.10;;;;;;;;;;5043828;28;20445;-77
2023/08/12 07:10:01;;;;;;;9.20;8.70;;;;;;;;;;5036722;28;20528;-76
2023/08/12 07:12:27;;;;;;;8.60;8.00;;;;;;;;;;5050131;28;20456;-76
2023/08/12 07:14:53;;;;;;;7.63;7.27;;;;;;;;;;5050670;28;20425;-77
2023/08/12 07:17:19;;;;;;;8.30;7.87;;;;;;;;;;5054514;28;20460;-77
2023/08/12 07:19:45;;;;;;;7.43;6.93;;;;;;;;;;5042283;28;20441;-75
2023/08/12 07:22:11;;;;;;;8.27;7.63;;;;;;;;;;5047170;28;20456;-78
2023/08/12 07:24:37;;;;;;;7.60;7.20;;;;;;;;;;5047933;28;20445;-77
2023/08/12 07:27:03;;;;;;;8.23;7.90;;;;;;;;;;5055476;28;20442;-77
2023/08/12 07:29:29;;;;;;;7.60;7.10;;;;;;;;;;5057785;28;20474;-76
2023/08/12 07:31:55;;;;;;;6.57;6.07;;;;;;;;;;5051640;28;20438;-76
2023/08/12 07:34:21;;;;;;;7.47;7.17;;;;;;;;;;5054816;28;20444;-76
2023/08/12 07:36:47;;;;;;;7.10;6.80;;;;;;;;;;5047927;28;20821;-76
2023/08/12 07:39:13;;;;;;;8.30;7.90;;;;;;;;;;5061174;28;20531;-76
2023/08/12 07:41:39;;;;;;;7.33;7.03;;;;;;;;;;5058471;28;20437;-74
2023/08/12 07:44:05;;;;;;;7.50;7.10;;;;;;;;;;5034234;28;21226;-78
2023/08/12 07:46:31;;;;;;;7.23;6.93;;;;;;;;;;5049358;28;20443;-75
2023/08/12 07:48:57;;;;;;;7.20;6.90;;;;;;;;;;5054528;28;20461;-76
2023/08/12 07:51:23;;;;;;;8.97;8.30;;;;;;;;;;5059100;28;20900;-77
2023/08/12 07:53:50;;;;;;;8.20;7.80;;;;;;;;;;5055847;28;20457;-76
2023/08/12 07:56:16;;;;;;;8.70;8.20;;;;;;;;;;5044415;28;20983;-77
2023/08/12 07:58:42;;;;;;;8.47;8.17;;;;;;;;;;5052461;28;20437;-76
2023/08/12 08:01:09;;;;;;;9.77;9.17;;;;;;;;;;5051478;28;20486;-77
2023/08/12 08:03:35;;;;;;;8.43;7.97;;;;;;;;;;5053070;28;20437;-75
2023/08/12 08:06:01;;;;;;;8.20;7.80;;;;;;;;;;5047057;28;20638;-76
2023/08/12 08:08:27;;;;;;;10.30;9.63;;;;;;;;;;5045767;28;20502;-80
2023/08/12 08:10:53;;;;;;;10.40;9.70;;;;;;;;;;5058175;28;20445;-79
2023/08/12 08:13:19;;;;;;;9.57;8.77;;;;;;;;;;5041545;28;20449;-78
2023/08/12 08:20:57;;;;;;;8.83;8.47;;;;;;;;;;5082170;23;20541;-85
2023/08/12 08:23:23;;;;;;;8.90;8.37;;;;;;;;;;5012016;28;20441;-88
2023/08/12 08:25:50;;;;;;;10.07;9.50;;;;;;;;;;4999123;28;20575;-82
2023/08/12 08:28:17;;;;;;;9.17;8.77;;;;;;;;;;5004116;28;20512;-83
2023/08/12 08:30:45;;;;;;;9.37;8.97;;;;;;;;;;4997552;28;20459;-82
2023/08/12 08:33:12;;;;;;;9.00;8.60;;;;;;;;;;4997750;28;20546;-81
2023/08/12 08:35:38;;;;;;;10.63;9.87;;;;;;;;;;4993938;28;20510;-85
2023/08/12 08:38:04;;;;;;;15.97;14.70;;;;;;;;;;5001095;28;20428;-81
2023/08/12 08:40:30;;;;;;;9.30;8.70;;;;;;;;;;5006975;28;20573;-82
2023/08/12 08:43:00;;;;;;;10.53;9.83;;;;;;;;;;5009699;28;20517;-85
2023/08/12 08:45:27;;;;;;;8.90;8.40;;;;;;;;;;5004251;28;20903;-85
2023/08/12 08:47:53;;;;;;;10.27;9.73;;;;;;;;;;5010279;28;20818;-85
2023/08/12 08:50:19;;;;;;;10.97;10.27;;;;;;;;;;5007531;28;20450;-83
2023/08/12 08:52:45;;;;;;;11.03;10.43;;;;;;;;;;5014188;28;20449;-85
2023/08/12 08:55:12;;;;;;;12.30;11.60;;;;;;;;;;5004250;28;20518;-81
2023/08/12 08:57:39;;;;;;;10.20;9.60;;;;;;;;;;5005327;28;20485;-83
2023/08/12 09:00:09;;;;;;;8.43;8.03;;;;;;;;;;5003062;28;20951;-82
2023/08/12 09:02:36;;;;;;;7.07;6.87;;;;;;;;;;5002281;28;20463;-82
2023/08/12 09:05:03;;;;;;;7.60;7.27;;;;;;;;;;5008264;28;20879;-82
2023/08/12 09:07:30;;;;;;;7.63;7.33;;;;;;;;;;5005647;28;20454;-83
2023/08/12 09:09:57;;;;;;;9.20;8.70;;;;;;;;;;5003409;28;20499;-81
2023/08/12 09:12:23;;;;;;;20.03;18.30;;;;;;;;;;5008967;28;20444;-80
2023/08/12 09:14:49;;;;;;;8.03;7.70;;;;;;;;;;5002691;28;20474;-80
2023/08/12 09:17:16;;;;;;;6.97;6.77;;;;;;;;;;5010187;28;20446;-80
2023/08/12 09:19:42;;;;;;;7.00;6.57;;;;;;;;;;5022614;28;20562;-77
2023/08/12 09:22:11;;;;;;;5.90;5.60;;;;;;;;;;5011951;28;20545;-81
2023/08/12 09:24:37;;;;;;;5.87;5.63;;;;;;;;;;5008586;28;20577;-79
2023/08/12 09:27:04;;;;;;;6.00;5.80;;;;;;;;;;4998467;28;20609;-77
2023/08/12 09:29:31;;;;;;;6.83;6.53;;;;;;;;;;5012506;28;21448;-80
2023/08/12 09:32:10;;;;;;;6.10;5.67;;;;;;;;;;5013109;28;20455;-79
2023/08/12 09:34:36;;;;;;;6.40;6.17;;;;;;;;;;5013560;28;20434;-81
2023/08/12 09:37:03;;;;;;;5.60;5.50;;;;;;;;;;5014786;28;20494;-79
2023/08/12 09:39:30;;;;;;;7.40;7.07;;;;;;;;;;5015148;28;20446;-78
2023/08/12 09:41:57;;;;;;;13.57;12.30;;;;;;;;;;4997668;28;20501;-79
2023/08/12 09:44:23;;;;;;;4.80;4.70;;;;;;;;;;5022985;28;20441;-83
2023/08/12 09:46:56;;;;;;;4.60;4.40;;;;;;;;;;5013606;28;20443;-79
2023/08/12 09:49:22;;;;;;;4.90;4.60;;;;;;;;;;5019781;28;20480;-80
2023/08/12 09:51:48;;;;;;;4.60;4.40;;;;;;;;;;5016610;28;20469;-79
2023/08/12 09:54:14;;;;;;;3.83;3.80;;;;;;;;;;5020611;28;20399;-80
2023/08/12 09:56:40;;;;;;;3.90;3.80;;;;;;;;;;5022679;28;20975;-81
2023/08/12 09:59:07;;;;;;;3.80;3.60;;;;;;;;;;5022370;28;20470;-82
2023/08/12 10:01:33;;;;;;;2.93;2.93;;;;;;;;;;5020649;28;20515;-82
2023/08/12 10:03:59;;;;;;;3.27;3.07;;;;;;;;;;5023592;28;20457;-82
2023/08/12 10:06:26;;;;;;;2.90;2.90;;;;;;;;;;5038422;28;20435;-86
2023/08/12 10:08:53;;;;;;;3.10;2.97;;;;;;;;;;5040972;28;20458;-81
2023/08/12 10:11:20;;;;;;;3.00;2.90;;;;;;;;;;5036292;28;20474;-83
2023/08/12 10:13:47;;;;;;;2.60;2.53;;;;;;;;;;5022108;28;20449;-84
2023/08/12 10:16:17;;;;;;;3.27;3.03;;;;;;;;;;5037714;28;20426;-84
2023/08/12 10:18:43;;;;;;;2.50;2.40;;;;;;;;;;5012925;28;20490;-82
2023/08/12 10:21:13;;;;;;;2.13;2.13;;;;;;;;;;5024276;28;20531;-80
2023/08/12 10:23:41;;;;;;;2.57;2.43;;;;;;;;;;5023747;28;20447;-83
2023/08/12 10:26:07;;;;;;;1.90;1.90;;;;;;;;;;5017113;28;20821;-82
2023/08/12 10:28:36;;;;;;;2.40;2.30;;;;;;;;;;5016293;28;20465;-83
2023/08/12 10:31:03;;;;;;;2.13;2.03;;;;;;;;;;5038426;28;20497;-85
2023/08/12 10:33:29;;;;;;;2.47;2.27;;;;;;;;;;5041155;28;20449;-84
2023/08/12 10:35:57;;;;;;;3.10;3.10;;;;;;;;;;5036588;28;20435;-85
2023/08/12 10:38:26;;;;;;;3.13;3.03;;;;;;;;;;5036593;28;20431;-86
2023/08/12 10:40:53;;;;;;;2.80;2.70;;;;;;;;;;5036530;28;20445;-87
2023/08/12 10:43:19;;;;;;;3.40;3.30;;;;;;;;;;5041499;28;20435;-85
2023/08/12 10:45:50;;;;;;;4.67;4.47;;;;;;;;;;5039837;28;20435;-87
2023/08/12 10:48:16;;;;;;;3.47;3.37;;;;;;;;;;5039764;28;21032;-87
2023/08/12 10:50:46;;;;;;;3.20;3.10;;;;;;;;;;5013947;28;20516;-83
2023/08/12 10:53:24;;;;;;;5.03;4.70;;;;;;;;;;5033486;28;20999;-87
2023/08/12 10:55:50;;;;;;;26.43;20.23;;;;;;;;;;5034557;28;20457;-86
2023/08/12 10:58:29;;;;;;;9.27;8.43;;;;;;;;;;5029213;28;20442;-82
2023/08/12 11:00:55;;;;;;;6.20;5.80;;;;;;;;;;5017588;28;20423;-81
2023/08/12 11:03:22;;;;;;;4.17;4.07;;;;;;;;;;5022704;28;20439;-81
2023/08/12 11:05:48;;;;;;;3.20;3.20;;;;;;;;;;5013148;28;20599;-78
2023/08/12 11:08:15;;;;;;;2.40;2.30;;;;;;;;;;5020384;28;20465;-79
2023/08/12 11:10:43;;;;;;;2.50;2.50;;;;;;;;;;5021150;28;20492;-79
2023/08/12 11:13:10;;;;;;;2.43;2.43;;;;;;;;;;5018270;28;20434;-77
2023/08/12 11:15:37;;;;;;;1.60;1.60;;;;;;;;;;5002268;28;20434;-79
2023/08/12 11:18:11;;;;;;;2.10;2.00;;;;;;;;;;5003678;28;20477;-77
2023/08/12 11:20:37;;;;;;;1.93;1.83;;;;;;;;;;5007189;28;20485;-82
2023/08/12 11:23:04;;;;;;;1.50;1.47;;;;;;;;;;5022062;28;20880;-81
2023/08/12 11:25:31;;;;;;;1.10;1.10;;;;;;;;;;5014025;28;20447;-83
2023/08/12 11:27:57;;;;;;;1.70;1.70;;;;;;;;;;5025128;28;20469;-80
2023/08/12 11:30:23;;;;;;;5.00;1.30;;;;;;;;;;5014953;28;20451;-78
2023/08/12 11:32:50;;;;;;;1.37;1.37;;;;;;;;;;5014062;28;20442;-80
2023/08/12 11:35:17;;;;;;;1.20;1.20;;;;;;;;;;5022626;28;20439;-81
2023/08/12 11:37:44;;;;;;;1.50;1.50;;;;;;;;;;5023868;28;20446;-82
2023/08/12 11:40:13;;;;;;;1.07;1.07;;;;;;;;;;5024816;28;20449;-82
2023/08/12 11:42:41;;;;;;;1.80;1.80;;;;;;;;;;5000850;28;21058;-81
2023/08/12 11:45:08;;;;;;;3.70;1.30;;;;;;;;;;5022768;28;20564;-80
2023/08/12 11:47:37;;;;;;;1.70;1.70;;;;;;;;;;5031455;28;20425;-85
2023/08/12 11:50:03;;;;;;;1.30;1.30;;;;;;;;;;5021476;28;20450;-80
2023/08/12 11:52:30;;;;;;;1.50;1.50;;;;;;;;;;5020274;28;20451;-83
2023/08/12 11:54:56;;;;;;;1.80;1.77;;;;;;;;;;5008304;28;20484;-81
2023/08/12 11:57:27;;;;;;;1.73;1.63;;;;;;;;;;5019537;28;20465;-81
2023/08/12 12:00:05;;;;;;;1.60;1.60;;;;;;;;;;5028261;28;20438;-82
2023/08/12 12:02:31;;;;;;;2.50;2.30;;;;;;;;;;5025507;28;20500;-82
2023/08/12 12:04:57;;;;;;;1.80;1.80;;;;;;;;;;5020611;28;20443;-85
2023/08/12 12:07:27;;;;;;;1.90;1.90;;;;;;;;;;5023374;28;20455;-81
2023/08/12 12:09:54;;;;;;;1.60;1.60;;;;;;;;;;5018930;28;20545;-85
2023/08/12 12:12:26;;;;;;;2.20;1.70;;;;;;;;;;5023265;28;20461;-84
2023/08/12 12:14:54;;;;;;;1.83;1.83;;;;;;;;;;5024553;28;20504;-81
2023/08/12 12:17:21;;;;;;;1.40;1.40;;;;;;;;;;5024018;28;20470;-84
2023/08/12 12:19:48;;;;;;;1.30;1.30;;;;;;;;;;5026321;28;20462;-84
2023/08/12 12:22:14;;;;;;;2.07;2.07;;;;;;;;;;5019527;28;20543;-81
2023/08/12 12:24:46;;;;;;;1.60;1.50;;;;;;;;;;5021196;28;20423;-80
2023/08/12 12:27:12;;;;;;;1.23;1.23;;;;;;;;;;5015267;28;20454;-80
2023/08/12 12:29:38;;;;;;;1.20;1.20;;;;;;;;;;5015514;28;20478;-81
2023/08/12 12:32:04;;;;;;;3.40;2.73;;;;;;;;;;5019196;28;20453;-78
2023/08/12 12:34:30;;;;;;;3.03;2.90;;;;;;;;;;5018401;28;20436;-78
2023/08/12 12:36:56;;;;;;;3.40;2.63;;;;;;;;;;5017779;28;20446;-81
2023/08/12 12:39:23;;;;;;;2.50;2.50;;;;;;;;;;5003609;28;20430;-80
2023/08/12 12:41:49;;;;;;;2.67;2.60;;;;;;;;;;5020558;28;20531;-84
2023/08/12 12:44:15;;;;;;;28.63;25.83;;;;;;;;;;5019385;28;20440;-78
2023/08/12 12:46:41;;;;;;;3.70;3.40;;;;;;;;;;5014553;28;20501;-81
2023/08/12 12:49:14;;;;;;;5.10;4.33;;;;;;;;;;5012699;28;20478;-79
2023/08/12 12:51:40;;;;;;;4.50;4.30;;;;;;;;;;5009696;28;20450;-79
2023/08/12 12:54:06;;;;;;;6.07;5.57;;;;;;;;;;5026010;28;20450;-82
2023/08/12 12:56:38;;;;;;;5.83;5.63;;;;;;;;;;5017848;28;21024;-82
2023/08/12 12:59:04;;;;;;;7.20;6.80;;;;;;;;;;5015089;28;20787;-81
2023/08/12 13:01:30;;;;;;;6.13;5.83;;;;;;;;;;5017065;28;20465;-81
2023/08/12 13:03:56;;;;;;;7.10;6.70;;;;;;;;;;5018429;28;21167;-80
2023/08/12 13:06:22;;;;;;;5.67;5.57;;;;;;;;;;5020978;28;20451;-80
2023/08/12 13:08:49;;;;;;;7.03;6.67;;;;;;;;;;5023016;28;20479;-79
2023/08/12 13:11:15;;;;;;;5.33;5.23;;;;;;;;;;5023758;28;20486;-80
2023/08/12 13:13:41;;;;;;;5.50;5.23;;;;;;;;;;5012312;28;20446;-79
2023/08/12 13:16:10;;;;;;;6.30;6.07;;;;;;;;;;5008010;28;20439;-79
2023/08/12 13:18:36;;;;;;;7.10;6.80;;;;;;;;;;5019545;28;20430;-77
2023/08/12 13:21:02;;;;;;;7.70;7.30;;;;;;;;;;5019689;28;21004;-81
2023/08/12 13:23:45;;;;;;;9.20;8.67;;;;;;;;;;5022624;28;20446;-82
2023/08/12 13:26:11;;;;;;;5.60;5.40;;;;;;;;;;5019305;28;20488;-81
2023/08/12 13:28:37;;;;;;;4.90;4.60;;;;;;;;;;5022048;28;20458;-80
2023/08/12 13:31:03;;;;;;;5.90;5.60;;;;;;;;;;5016833;28;20458;-81
2023/08/12 13:33:29;;;;;;;5.53;5.27;;;;;;;;;;5021311;28;20439;-85
2023/08/12 13:35:55;;;;;;;5.93;5.57;;;;;;;;;;5025162;28;21032;-80
2023/08/12 13:38:21;;;;;;;4.67;4.57;;;;;;;;;;5012670;28;20446;-80
2023/08/12 13:40:47;;;;;;;6.10;5.90;;;;;;;;;;4999860;28;20447;-80
2023/08/12 13:43:14;;;;;;;5.93;5.83;;;;;;;;;;5019319;28;20443;-80
2023/08/12 13:45:40;;;;;;;6.63;6.23;;;;;;;;;;5019492;28;20442;-82
2023/08/12 13:48:06;;;;;;;6.40;6.30;;;;;;;;;;5024451;28;20462;-81
2023/08/12 13:50:32;;;;;;;6.93;6.63;;;;;;;;;;5024500;28;20449;-81
2023/08/12 13:52:58;;;;;;;8.63;8.27;;;;;;;;;;5015990;28;20437;-84
2023/08/12 13:55:25;;;;;;;8.67;7.93;;;;;;;;;;5002697;28;20481;-81
2023/08/12 13:57:52;;;;;;;7.70;7.00;;;;;;;;;;5018926;28;20440;-83
2023/08/12 14:00:18;;;;;;;5.60;5.30;;;;;;;;;;4995475;28;20947;-83
2023/08/12 14:02:44;;;;;;;4.60;4.37;;;;;;;;;;5016630;28;20440;-78
2023/08/12 14:05:11;;;;;;;5.00;4.90;;;;;;;;;;5023737;28;20438;-81
2023/08/12 14:07:37;;;;;;;5.30;5.20;;;;;;;;;;5015449;28;20423;-81
2023/08/12 14:10:04;;;;;;;4.40;4.40;;;;;;;;;;5014911;28;20480;-80
2023/08/12 14:12:30;;;;;;;4.10;4.10;;;;;;;;;;5010882;28;20857;-79
2023/08/12 14:14:56;;;;;;;4.73;4.67;;;;;;;;;;5018623;28;20427;-79
2023/08/12 14:17:23;;;;;;;4.80;4.60;;;;;;;;;;4995958;28;21333;-80
2023/08/12 14:19:50;;;;;;;5.07;4.87;;;;;;;;;;5017344;28;20474;-80
2023/08/12 14:22:16;;;;;;;4.60;4.60;;;;;;;;;;5020977;28;20734;-82
2023/08/12 14:24:44;;;;;;;4.40;4.40;;;;;;;;;;5004771;28;20445;-81
2023/08/12 14:27:10;;;;;;;4.03;4.03;;;;;;;;;;5022379;28;20505;-81
2023/08/12 14:29:36;;;;;;;4.30;4.20;;;;;;;;;;5017074;28;20513;-80
2023/08/12 14:32:02;;;;;;;5.07;4.80;;;;;;;;;;5017719;28;20447;-80
2023/08/12 14:34:28;;;;;;;6.13;5.73;;;;;;;;;;5028934;28;20801;-83
2023/08/12 14:36:54;;;;;;;4.80;4.70;;;;;;;;;;5014480;28;20434;-81
2023/08/12 14:39:21;;;;;;;4.70;4.60;;;;;;;;;;5028005;28;20435;-87